Time;durP1;ratioP1;P1;durP2;ratioP2;P2;SDS_P1;SDS_P2;PMS_P1;PMS_P2;Temp;Humidity;BMP_temperature;BMP_pressure;BME280_temperature;BME280_humidity;BME280_pressure;Samples;Min_cycle;Max_cycle;Signal;HPM_P1;HPM_P2
2022/11/25 00:00:13;;;;;;;13.30;5.45;;;;;;;6.06;66.73;100608.63;685294;28;1074;-82
2022/11/25 00:00:33;;;;;;;14.00;5.30;;;;;;;5.99;66.47;100600.56;682825;28;1037;-83
2022/11/25 00:01:06;;;;;;;14.37;5.77;;;;;;;6.05;66.31;100612.91;690963;28;705;-82
2022/11/25 00:01:29;;;;;;;9.52;5.43;;;;;;;5.97;66.55;100597.03;690953;28;1013;-82
2022/11/25 00:01:50;;;;;;;8.65;5.10;;;;;;;5.97;66.45;100607.41;685627;28;1311;-82
2022/11/25 00:02:11;;;;;;;8.57;4.80;;;;;;;5.93;66.39;100602.88;685468;28;1157;-82
2022/11/25 00:02:31;;;;;;;8.65;4.70;;;;;;;5.92;66.26;100595.94;690830;28;1202;-82
2022/11/25 00:02:52;;;;;;;7.47;4.80;;;;;;;5.95;66.94;100606.41;690988;28;1240;-82
2022/11/25 00:03:12;;;;;;;9.60;5.03;;;;;;;5.93;66.50;100602.00;690647;28;1267;-83
2022/11/25 00:03:34;;;;;;;12.38;5.40;;;;;;;5.98;66.76;100614.34;685643;28;1092;-82
2022/11/25 00:03:56;;;;;;;14.25;5.40;;;;;;;5.97;66.83;100612.59;685795;28;1258;-82
2022/11/25 00:04:16;;;;;;;12.90;5.40;;;;;;;5.93;66.50;100615.84;688203;28;1274;-82
2022/11/25 00:04:38;;;;;;;12.10;5.30;;;;;;;5.88;66.46;100605.28;688435;28;1185;-83
2022/11/25 00:04:58;;;;;;;11.98;5.30;;;;;;;5.85;66.75;100605.16;685728;28;1232;-82
2022/11/25 00:05:19;;;;;;;11.85;5.03;;;;;;;5.85;67.02;100610.34;685482;28;1150;-82
2022/11/25 00:05:39;;;;;;;10.32;4.85;;;;;;;5.83;66.60;100611.06;685657;28;963;-82
2022/11/25 00:06:20;;;;;;;10.67;5.20;;;;;;;5.84;67.07;100599.91;685622;28;1043;-82
2022/11/25 00:06:41;;;;;;;9.55;5.20;;;;;;;5.81;66.88;100603.22;690969;28;1190;-82
2022/11/25 00:07:02;;;;;;;11.10;5.10;;;;;;;5.79;66.93;100598.78;690970;28;999;-82
2022/11/25 00:07:22;;;;;;;12.40;5.23;;;;;;;5.81;66.82;100602.31;691318;28;992;-82
2022/11/25 00:07:43;;;;;;;14.20;5.60;;;;;;;5.78;66.88;100597.03;685643;28;1330;-82
2022/11/25 00:08:03;;;;;;;11.97;5.40;;;;;;;5.79;66.88;100603.97;690912;28;1270;-82
2022/11/25 00:08:24;;;;;;;11.20;5.40;;;;;;;5.77;66.92;100592.66;691049;28;866;-82
2022/11/25 00:08:47;;;;;;;9.80;5.10;;;;;;;5.78;66.72;100600.50;691098;28;1170;-83
2022/11/25 00:09:12;;;;;;;13.57;5.40;;;;;;;5.80;66.86;100605.75;690917;28;1355;-82
2022/11/25 00:09:32;;;;;;;16.70;5.88;;;;;;;5.71;66.86;100596.75;690735;28;1275;-82
2022/11/25 00:09:53;;;;;;;14.53;5.90;;;;;;;5.79;66.80;100611.75;688463;28;1119;-82
2022/11/25 00:10:13;;;;;;;14.93;5.88;;;;;;;5.75;66.75;100602.94;688250;28;1250;-82
2022/11/25 00:10:34;;;;;;;13.93;5.50;;;;;;;5.70;66.75;100599.28;691135;28;1263;-83
2022/11/25 00:10:55;;;;;;;15.00;5.47;;;;;;;5.75;66.74;100609.03;685750;28;1156;-82
2022/11/25 00:11:16;;;;;;;13.00;5.20;;;;;;;5.75;66.96;100601.25;688356;28;995;-82
2022/11/25 00:11:39;;;;;;;11.43;5.13;;;;;;;5.79;66.95;100620.41;688522;28;1234;-82
2022/11/25 00:12:00;;;;;;;11.68;5.20;;;;;;;5.70;67.04;100594.97;693770;28;1386;-83
2022/11/25 00:12:20;;;;;;;13.53;5.40;;;;;;;5.71;67.35;100601.06;693731;28;1067;-83
2022/11/25 00:12:41;;;;;;;13.63;5.15;;;;;;;5.71;66.81;100606.22;694567;28;956;-82
2022/11/25 00:13:02;;;;;;;13.50;5.30;;;;;;;5.72;67.10;100603.69;693127;28;1166;-82
2022/11/25 00:13:23;;;;;;;13.43;4.97;;;;;;;5.69;66.94;100608.75;690904;28;1389;-82
2022/11/25 00:13:45;;;;;;;10.38;4.70;;;;;;;5.74;67.01;100612.44;690732;28;1316;-82
2022/11/25 00:14:10;;;;;;;9.68;5.00;;;;;;;5.73;67.03;100621.03;695644;28;1329;-82
2022/11/25 00:14:31;;;;;;;10.35;5.20;;;;;;;5.71;67.25;100609.69;696543;28;1022;-82
2022/11/25 00:14:51;;;;;;;12.27;5.10;;;;;;;5.71;67.01;100609.69;696609;28;751;-83
2022/11/25 00:15:12;;;;;;;13.88;5.13;;;;;;;5.73;67.35;100613.25;690938;28;1178;-82
2022/11/25 00:15:33;;;;;;;15.10;5.57;;;;;;;5.70;66.93;100602.75;685713;28;1145;-82
2022/11/25 00:15:53;;;;;;;14.98;5.80;;;;;;;5.72;67.21;100605.41;685767;28;962;-82
2022/11/25 00:16:17;;;;;;;14.65;5.53;;;;;;;5.80;66.97;100618.69;685659;28;1143;-82
2022/11/25 00:16:38;;;;;;;11.60;5.10;;;;;;;5.67;66.85;100593.94;688316;28;1371;-82
2022/11/25 00:16:58;;;;;;;11.17;4.93;;;;;;;5.68;66.95;100593.13;691143;28;1055;-82
2022/11/25 00:17:19;;;;;;;9.60;4.95;;;;;;;5.73;67.05;100600.31;691758;28;1035;-83
2022/11/25 00:17:39;;;;;;;9.57;4.90;;;;;;;5.72;67.35;100608.88;691204;28;1174;-82
2022/11/25 00:18:00;;;;;;;10.30;5.17;;;;;;;5.73;67.15;100600.31;691191;28;1024;-83
2022/11/25 00:18:20;;;;;;;11.68;5.20;;;;;;;5.70;66.97;100602.75;688332;28;1157;-82
2022/11/25 00:18:46;;;;;;;13.38;5.30;;;;;;;5.70;66.87;100596.69;690867;28;1898;-82
2022/11/25 00:19:09;;;;;;;11.80;4.68;;;;;;;5.73;67.24;100605.50;688235;28;1053;-82
2022/11/25 00:19:30;;;;;;;12.90;5.22;;;;;;;5.72;66.96;100608.88;685556;28;925;-82
2022/11/25 00:19:50;;;;;;;12.90;5.30;;;;;;;5.72;66.98;100603.69;685632;28;1022;-82
2022/11/25 00:20:11;;;;;;;14.90;5.60;;;;;;;5.69;67.09;100597.47;690939;28;1134;-82
2022/11/25 00:20:32;;;;;;;13.75;5.35;;;;;;;5.69;66.97;100603.56;693771;28;1138;-83
2022/11/25 00:20:52;;;;;;;13.10;5.20;;;;;;;5.70;67.34;100605.34;693946;28;844;-82
2022/11/25 00:21:16;;;;;;;10.35;5.03;;;;;;;5.64;67.28;100591.25;693819;28;1098;-82
2022/11/25 00:21:37;;;;;;;9.85;4.80;;;;;;;5.70;67.34;100594.97;691194;28;1044;-82
2022/11/25 00:21:57;;;;;;;11.07;4.80;;;;;;;5.76;67.48;100609.91;688494;28;1277;-82
2022/11/25 00:22:18;;;;;;;10.70;5.00;;;;;;;5.77;67.33;100610.78;696454;28;1254;-82
2022/11/25 00:22:38;;;;;;;13.52;5.47;;;;;;;5.82;66.91;100620.53;693838;28;1191;-83
2022/11/25 00:22:59;;;;;;;14.35;6.00;;;;;;;5.70;67.62;100589.78;693882;28;1230;-83
2022/11/25 00:23:19;;;;;;;15.23;6.00;;;;;;;5.74;67.34;100596.00;691105;28;1113;-82
2022/11/25 00:23:40;;;;;;;13.15;5.80;;;;;;;5.77;67.69;100600.44;685715;28;1217;-82
2022/11/25 00:24:05;;;;;;;11.85;5.45;;;;;;;5.80;67.33;100600.56;688292;28;1251;-82
2022/11/25 00:24:25;;;;;;;11.63;5.60;;;;;;;5.80;67.41;100601.47;688282;28;973;-82
2022/11/25 00:24:46;;;;;;;12.57;5.60;;;;;;;5.80;67.29;100593.69;685734;28;684;-82
2022/11/25 00:25:07;;;;;;;11.93;5.60;;;;;;;5.85;67.51;100601.66;690929;28;1066;-82
2022/11/25 00:25:27;;;;;;;11.13;5.30;;;;;;;5.81;67.25;100591.97;691063;28;984;-83
2022/11/25 00:25:48;;;;;;;10.17;4.87;;;;;;;5.85;67.14;100596.47;691087;28;1275;-82
2022/11/25 00:26:11;;;;;;;8.70;4.60;;;;;;;5.91;67.55;100599.34;691012;28;1052;-82
2022/11/25 00:26:35;;;;;;;9.25;4.60;;;;;;;5.87;67.52;100587.06;691094;28;1012;-83
2022/11/25 00:26:57;;;;;;;10.55;4.90;;;;;;;5.97;67.67;100604.81;688378;28;1864;-82
2022/11/25 00:27:18;;;;;;;11.63;5.18;;;;;;;5.94;67.75;100591.69;685603;28;1299;-82
2022/11/25 00:27:38;;;;;;;11.93;5.00;;;;;;;5.97;67.88;100590.97;691124;28;1377;-82
2022/11/25 00:27:59;;;;;;;12.20;4.88;;;;;;;6.00;67.46;100591.09;685663;28;1206;-82
2022/11/25 00:28:19;;;;;;;12.43;4.90;;;;;;;6.00;67.65;100594.56;691066;28;1102;-82
2022/11/25 00:28:45;;;;;;;13.75;5.00;;;;;;;6.06;67.77;100587.91;691152;28;854;-82
2022/11/25 00:29:10;;;;;;;12.95;5.70;;;;;;;6.19;67.92;100599.69;691091;28;1036;-82
2022/11/25 00:29:31;;;;;;;10.50;5.30;;;;;;;6.13;67.94;100589.91;685430;28;1567;-82
2022/11/25 00:29:51;;;;;;;10.77;5.57;;;;;;;6.17;67.83;100586.66;685708;28;796;-82
2022/11/25 00:30:12;;;;;;;11.57;5.60;;;;;;;6.20;67.87;100591.94;690984;28;1135;-83
2022/11/25 00:30:33;;;;;;;14.65;6.25;;;;;;;6.26;67.70;100597.41;693769;28;1232;-82
2022/11/25 00:30:53;;;;;;;14.57;5.95;;;;;;;6.30;67.50;100604.50;691087;28;1162;-82
2022/11/25 00:31:18;;;;;;;14.70;5.50;;;;;;;6.33;67.42;100588.19;688258;28;1167;-83
2022/11/25 00:31:39;;;;;;;11.57;4.90;;;;;;;6.39;67.50;100593.63;691038;28;1709;-82
2022/11/25 00:32:00;;;;;;;9.52;4.63;;;;;;;6.47;67.89;100599.13;688342;28;1183;-82
2022/11/25 00:32:20;;;;;;;8.97;4.87;;;;;;;6.43;67.50;100586.84;685701;28;1231;-82
2022/11/25 00:32:42;;;;;;;9.50;4.90;;;;;;;6.47;67.30;100588.78;688507;28;1079;-82
2022/11/25 00:33:02;;;;;;;10.80;5.37;;;;;;;6.49;67.76;100589.72;688254;28;1142;-82
2022/11/25 00:33:23;;;;;;;13.55;5.55;;;;;;;6.52;67.25;100595.00;693734;28;1172;-82
2022/11/25 00:33:44;;;;;;;12.88;5.50;;;;;;;6.54;67.21;100588.22;691104;28;1224;-83
2022/11/25 00:34:06;;;;;;;13.75;5.80;;;;;;;6.61;67.09;100593.63;688264;28;1366;-82
2022/11/25 00:34:26;;;;;;;11.95;5.75;;;;;;;6.56;67.37;100594.34;685551;28;897;-82
2022/11/25 00:34:47;;;;;;;11.63;5.80;;;;;;;6.65;67.17;100600.72;688343;28;1204;-83
2022/11/25 00:35:07;;;;;;;11.00;5.40;;;;;;;6.61;67.53;100588.44;688137;28;1330;-82
2022/11/25 00:35:28;;;;;;;12.20;5.40;;;;;;;6.67;67.39;100594.78;688216;28;1037;-81
2022/11/25 00:35:49;;;;;;;13.57;5.45;;;;;;;6.61;67.07;100585.84;690252;28;1128;-82
2022/11/25 00:36:23;;;;;;;14.37;5.23;;;;;;;6.74;66.80;100595.94;690959;28;1063;-82
2022/11/25 00:36:43;;;;;;;15.32;5.25;;;;;;;6.62;67.34;100578.13;696449;28;892;-82
2022/11/25 00:37:04;;;;;;;13.82;5.32;;;;;;;6.69;67.35;100587.06;690917;28;1092;-82
2022/11/25 00:37:24;;;;;;;12.20;5.20;;;;;;;6.68;67.20;100586.16;682971;29;1178;-82
2022/11/25 00:37:45;;;;;;;12.80;5.23;;;;;;;6.67;67.13;100575.72;685547;28;1260;-82
2022/11/25 00:38:05;;;;;;;12.05;5.13;;;;;;;6.74;67.12;100588.16;688246;28;1279;-82
2022/11/25 00:38:26;;;;;;;11.33;5.13;;;;;;;6.74;66.75;100579.50;688298;28;1060;-82
2022/11/25 00:38:51;;;;;;;12.40;5.07;;;;;;;6.85;66.79;100607.66;689194;28;1930;-83
2022/11/25 00:39:14;;;;;;;14.38;5.30;;;;;;;6.80;67.34;100577.13;684784;28;1188;-82
2022/11/25 00:39:34;;;;;;;15.25;5.30;;;;;;;6.85;67.25;100589.50;690220;28;963;-82
2022/11/25 00:39:55;;;;;;;14.20;5.30;;;;;;;6.91;67.22;100587.94;692947;28;917;-82
2022/11/25 00:40:16;;;;;;;15.17;5.17;;;;;;;6.84;67.21;100577.34;692795;28;1144;-82
2022/11/25 00:40:36;;;;;;;16.43;5.30;;;;;;;6.93;67.56;100583.72;695593;28;1302;-82
2022/11/25 00:44:34;;;;;;;10.15;4.50;;;;;;;7.36;66.37;100576.69;687758;28;1318;-82
2022/11/25 00:44:55;;;;;;;12.30;5.00;;;;;;;7.45;66.64;100589.16;690806;28;895;-82
2022/11/25 00:45:16;;;;;;;13.48;5.43;;;;;;;7.45;66.57;100578.78;690903;28;1118;-82
2022/11/25 00:45:36;;;;;;;14.50;5.67;;;;;;;7.42;66.37;100573.47;687957;28;1327;-82
2022/11/25 00:45:57;;;;;;;14.27;5.13;;;;;;;7.43;66.02;100572.66;685549;28;1399;-82
2022/11/25 00:46:20;;;;;;;16.75;5.03;;;;;;;7.45;66.57;100571.00;683029;28;978;-82
2022/11/25 00:46:40;;;;;;;15.18;4.80;;;;;;;7.56;66.27;100590.47;682906;29;1430;-82
2022/11/25 00:47:13;;;;;;;12.15;4.65;;;;;;;7.48;66.58;100571.09;688116;28;1233;-82
2022/11/25 00:47:35;;;;;;;11.55;4.55;;;;;;;7.54;66.55;100576.53;688091;28;1295;-82
2022/11/25 00:47:56;;;;;;;13.50;4.90;;;;;;;7.52;66.37;100567.78;688370;28;1208;-82
2022/11/25 00:48:16;;;;;;;13.47;5.00;;;;;;;7.58;65.92;100578.41;687853;28;1257;-82
2022/11/25 00:48:37;;;;;;;13.15;5.22;;;;;;;7.57;65.91;100576.66;690937;28;973;-82
2022/11/25 00:48:58;;;;;;;10.77;4.88;;;;;;;7.55;66.06;100565.31;693441;28;1196;-82
2022/11/25 00:49:18;;;;;;;9.73;4.63;;;;;;;7.54;65.93;100569.63;690808;28;933;-82
2022/11/25 00:49:44;;;;;;;10.88;4.88;;;;;;;7.59;66.63;100585.38;685407;28;1239;-81
2022/11/25 00:50:05;;;;;;;11.23;5.10;;;;;;;7.55;65.93;100570.50;688008;28;1110;-83
2022/11/25 00:50:26;;;;;;;12.45;5.03;;;;;;;7.57;66.37;100579.25;688131;28;1236;-82
2022/11/25 00:50:47;;;;;;;10.92;4.70;;;;;;;7.56;66.17;100580.09;685541;28;1126;-82
2022/11/25 00:51:08;;;;;;;11.23;5.07;;;;;;;7.60;65.92;100576.75;688036;28;1241;-82
2022/11/25 00:51:28;;;;;;;11.50;5.28;;;;;;;7.57;66.57;100571.47;690736;28;1188;-82
2022/11/25 00:51:49;;;;;;;11.53;5.40;;;;;;;7.59;65.64;100574.09;685638;28;1109;-82
2022/11/25 00:52:13;;;;;;;13.18;4.97;;;;;;;7.64;65.91;100583.84;688030;28;1143;-82
2022/11/25 00:52:35;;;;;;;12.25;5.03;;;;;;;7.60;65.77;100579.34;688172;28;1017;-82
2022/11/25 00:52:56;;;;;;;11.23;4.97;;;;;;;7.60;66.08;100576.75;688058;28;1440;-83
2022/11/25 00:53:17;;;;;;;10.88;5.07;;;;;;;7.59;65.89;100568.91;690813;28;1186;-82
2022/11/25 00:53:37;;;;;;;11.87;4.80;;;;;;;7.57;65.86;100576.66;696351;28;1297;-82
2022/11/25 00:53:58;;;;;;;10.95;4.50;;;;;;;7.54;66.03;100569.63;691051;28;799;-82
2022/11/25 00:54:18;;;;;;;10.77;4.68;;;;;;;7.54;66.31;100576.53;696321;28;1240;-82
2022/11/25 00:54:39;;;;;;;9.63;4.80;;;;;;;7.61;66.05;100582.84;693582;28;1130;-82
2022/11/25 00:54:59;;;;;;;9.77;5.07;;;;;;;7.61;65.99;100588.91;693505;28;876;-82
2022/11/25 00:55:20;;;;;;;10.13;5.00;;;;;;;7.53;65.90;100574.75;690940;28;1266;-82
2022/11/25 00:56:22;;;;;;;11.55;4.40;;;;;;;7.57;66.06;100571.47;690917;28;1059;-82
2022/11/25 00:56:43;;;;;;;9.65;4.32;;;;;;;7.62;65.98;100574.22;690937;28;1227;-82
2022/11/25 00:57:03;;;;;;;9.50;4.38;;;;;;;7.62;65.78;100582.88;682862;28;1116;-82
2022/11/25 00:57:24;;;;;;;9.00;4.40;;;;;;;7.64;66.12;100581.25;691002;28;1068;-82
2022/11/25 00:57:45;;;;;;;9.27;4.28;;;;;;;7.62;65.81;100569.03;691011;28;890;-82
2022/11/25 00:58:06;;;;;;;8.57;4.10;;;;;;;7.59;65.93;100564.59;691036;28;1016;-81
2022/11/25 00:58:26;;;;;;;7.80;4.00;;;;;;;7.59;66.03;100564.59;693814;28;1055;-82
2022/11/25 00:58:47;;;;;;;8.30;4.27;;;;;;;7.64;66.25;100578.66;690999;28;1903;-82
2022/11/25 00:59:08;;;;;;;8.18;4.10;;;;;;;7.65;65.79;100570.03;685701;28;1296;-82
2022/11/25 00:59:29;;;;;;;9.38;4.30;;;;;;;7.66;65.79;100566.59;682897;28;1108;-82
2022/11/25 00:59:49;;;;;;;9.15;4.10;;;;;;;7.74;66.01;100585.03;688168;28;1049;-82
2022/11/25 01:00:11;;;;;;;9.30;4.30;;;;;;;7.67;65.77;100568.38;690892;28;1102;-82
2022/11/25 01:00:34;;;;;;;11.15;4.40;;;;;;;7.72;65.98;100575.41;693791;28;968;-82
2022/11/25 01:01:00;;;;;;;10.98;4.10;;;;;;;7.75;65.69;100575.56;688281;28;1168;-82
2022/11/25 01:01:20;;;;;;;9.60;3.88;;;;;;;7.73;65.69;100574.63;693671;28;1073;-82
2022/11/25 01:01:41;;;;;;;8.98;3.85;;;;;;;7.74;65.63;100566.88;690984;28;1163;-82
2022/11/25 01:02:01;;;;;;;8.87;4.23;;;;;;;7.84;65.67;100580.22;688028;28;1038;-82
2022/11/25 01:02:22;;;;;;;9.05;4.43;;;;;;;7.75;66.16;100571.22;682956;28;839;-82
2022/11/25 01:02:43;;;;;;;10.80;4.65;;;;;;;7.77;65.64;100573.88;690598;28;1145;-82
2022/11/25 01:03:06;;;;;;;12.00;4.32;;;;;;;7.77;65.64;100573.88;693562;28;1214;-82
2022/11/25 01:03:27;;;;;;;11.95;4.30;;;;;;;7.81;66.44;100570.59;688082;28;1290;-82
2022/11/25 01:03:49;;;;;;;9.60;4.15;;;;;;;7.72;66.33;100565.03;690979;28;1117;-83
2022/11/25 01:04:10;;;;;;;10.32;4.20;;;;;;;7.82;66.23;100582.75;688064;28;1108;-83
2022/11/25 01:04:30;;;;;;;10.63;4.25;;;;;;;7.77;65.67;100574.78;688199;28;984;-82
2022/11/25 01:04:51;;;;;;;10.20;3.90;;;;;;;7.81;65.75;100571.44;688335;28;775;-82
2022/11/25 01:05:11;;;;;;;10.73;4.20;;;;;;;7.89;66.08;100569.16;693671;28;1126;-82
2022/11/25 01:05:32;;;;;;;11.30;4.32;;;;;;;7.97;65.85;100571.13;690957;28;1188;-82
2022/11/25 01:05:52;;;;;;;12.80;4.43;;;;;;;7.97;65.40;100565.94;690958;28;1093;-82
2022/11/25 01:06:13;;;;;;;11.57;4.13;;;;;;;8.02;65.64;100580.84;693494;28;1146;-82
2022/11/25 01:06:35;;;;;;;9.75;3.92;;;;;;;8.03;65.35;100566.13;691039;28;989;-82
2022/11/25 01:06:58;;;;;;;9.18;4.07;;;;;;;8.01;65.29;100562.59;688247;28;1430;-82
2022/11/25 01:07:19;;;;;;;9.18;3.80;;;;;;;8.07;65.71;100571.53;696326;28;1237;-83
2022/11/25 01:07:39;;;;;;;8.55;4.10;;;;;;;8.03;64.99;100555.72;693571;28;1235;-83
2022/11/25 01:08:00;;;;;;;8.90;4.23;;;;;;;8.07;65.53;100562.81;693663;28;1274;-82
2022/11/25 01:08:20;;;;;;;10.18;4.28;;;;;;;8.07;65.04;100560.22;690895;28;1175;-82
2022/11/25 01:08:41;;;;;;;11.50;3.90;;;;;;;8.04;64.96;100558.41;688228;28;1420;-82
2022/11/25 01:09:03;;;;;;;11.40;3.90;;;;;;;8.05;65.14;100560.16;688051;28;1041;-82
2022/11/25 01:09:24;;;;;;;8.25;3.60;;;;;;;8.13;65.17;100573.44;690744;28;1389;-82
2022/11/25 01:09:46;;;;;;;8.32;3.72;;;;;;;8.13;65.18;100563.03;690636;28;846;-82
2022/11/25 01:10:07;;;;;;;8.57;3.70;;;;;;;8.11;64.98;100563.81;690648;28;1028;-82
2022/11/25 01:10:28;;;;;;;8.23;3.22;;;;;;;8.05;65.18;100549.75;688306;28;1100;-82
2022/11/25 01:10:48;;;;;;;7.47;3.20;;;;;;;8.09;65.18;100562.06;691150;28;748;-82
2022/11/25 01:11:14;;;;;;;7.88;3.22;;;;;;;8.14;65.16;100561.31;690785;28;1027;-82
2022/11/25 01:11:35;;;;;;;8.60;3.80;;;;;;;8.11;64.88;100554.28;685617;28;1210;-82
2022/11/25 01:11:56;;;;;;;7.67;3.70;;;;;;;8.09;64.87;100554.25;691012;28;854;-82
2022/11/25 01:12:16;;;;;;;8.65;3.90;;;;;;;8.07;65.06;100548.13;690835;28;1241;-82
2022/11/25 01:12:37;;;;;;;10.10;4.30;;;;;;;8.21;65.11;100571.09;688093;28;1299;-82
2022/11/25 01:12:57;;;;;;;9.93;4.38;;;;;;;8.17;64.91;100562.31;693572;28;1184;-82
2022/11/25 01:13:18;;;;;;;9.23;4.20;;;;;;;8.12;65.15;100561.28;693624;28;1118;-82
2022/11/25 01:13:39;;;;;;;8.00;3.60;;;;;;;8.15;65.04;100561.38;685632;28;1333;-82
2022/11/25 01:14:00;;;;;;;10.70;3.60;;;;;;;8.14;64.83;100561.31;693632;28;1181;-82
2022/11/25 01:14:21;;;;;;;11.95;3.80;;;;;;;8.14;64.60;100559.59;696327;28;1190;-81
2022/11/25 01:14:42;;;;;;;11.52;3.83;;;;;;;8.16;65.03;100560.53;691027;28;999;-82
2022/11/25 01:15:02;;;;;;;9.73;3.65;;;;;;;8.12;64.70;100547.38;685499;28;1141;-82
2022/11/25 01:15:23;;;;;;;11.13;3.90;;;;;;;8.17;64.96;100561.44;693573;28;1314;-82
2022/11/25 01:15:44;;;;;;;10.52;3.97;;;;;;;8.15;64.87;100556.19;691089;28;776;-82
2022/11/25 01:16:06;;;;;;;10.43;4.10;;;;;;;8.14;64.75;100549.22;685424;28;1184;-82
2022/11/25 01:16:30;;;;;;;10.70;3.90;;;;;;;8.17;64.72;100554.50;690948;28;1286;-82
2022/11/25 01:16:50;;;;;;;14.13;4.22;;;;;;;8.25;64.60;100566.88;691104;28;1236;-82
2022/11/25 01:17:11;;;;;;;13.03;4.77;;;;;;;8.15;64.78;100552.69;688145;28;1216;-82
2022/11/25 01:17:32;;;;;;;11.48;4.63;;;;;;;8.14;64.85;100558.72;685609;28;976;-82
2022/11/25 01:17:52;;;;;;;10.60;4.72;;;;;;;8.07;65.04;100557.63;685590;28;866;-82
2022/11/25 01:18:13;;;;;;;9.40;4.20;;;;;;;8.05;65.19;100546.31;687924;28;1211;-82
2022/11/25 01:18:34;;;;;;;8.80;4.30;;;;;;;8.13;64.89;100565.66;688198;28;1910;-81
2022/11/25 01:18:55;;;;;;;8.02;4.15;;;;;;;8.08;65.31;100554.19;685601;28;1232;-82
2022/11/25 01:19:16;;;;;;;8.45;3.97;;;;;;;8.07;65.03;100557.63;690801;28;1155;-82
2022/11/25 01:19:39;;;;;;;8.13;3.63;;;;;;;8.06;64.85;100550.66;688016;28;1103;-82
2022/11/25 01:19:59;;;;;;;7.80;3.70;;;;;;;8.10;65.09;100557.72;685586;28;1049;-82
2022/11/25 01:20:20;;;;;;;7.28;3.70;;;;;;;8.08;65.12;100560.28;685507;28;1225;-82
2022/11/25 01:20:40;;;;;;;7.03;3.50;;;;;;;8.09;65.38;100558.56;688228;28;1242;-82
2022/11/25 01:21:15;;;;;;;9.40;3.63;;;;;;;8.14;65.32;100564.81;690895;28;1180;-82
2022/11/25 01:21:36;;;;;;;8.93;4.05;;;;;;;8.08;65.05;100556.78;688244;28;976;-82
2022/11/25 01:21:56;;;;;;;8.43;3.95;;;;;;;8.07;64.79;100560.22;688373;28;890;-82
2022/11/25 01:22:17;;;;;;;8.67;3.80;;;;;;;8.07;65.11;100557.63;696063;28;1165;-82
2022/11/25 01:22:37;;;;;;;9.20;3.55;;;;;;;8.09;65.08;100551.66;691018;28;1015;-83
2022/11/25 01:22:58;;;;;;;7.45;3.50;;;;;;;8.13;64.88;100565.66;688296;28;1187;-82
2022/11/25 01:23:22;;;;;;;7.30;3.30;;;;;;;8.10;65.16;100557.72;688113;28;1110;-82
2022/11/25 01:23:42;;;;;;;8.48;3.60;;;;;;;8.14;64.88;100564.81;688259;28;1141;-82
2022/11/25 01:24:05;;;;;;;8.52;3.88;;;;;;;8.09;65.40;100550.75;688122;28;1155;-82
2022/11/25 01:24:27;;;;;;;9.38;3.75;;;;;;;8.14;65.36;100558.72;688242;28;1014;-82
2022/11/25 01:24:47;;;;;;;8.47;3.80;;;;;;;8.11;65.29;100556.88;693766;28;838;-82
2022/11/25 01:25:08;;;;;;;8.60;3.55;;;;;;;8.11;64.83;100554.28;696386;28;1099;-82
2022/11/25 01:25:29;;;;;;;9.00;3.90;;;;;;;8.12;65.53;100548.28;696459;28;1012;-82
2022/11/25 01:25:49;;;;;;;9.80;4.00;;;;;;;8.13;65.14;100555.25;693745;28;1181;-82
2022/11/25 01:26:15;;;;;;;9.77;4.18;;;;;;;8.18;65.36;100564.06;693531;28;1228;-82
2022/11/25 01:26:35;;;;;;;8.68;4.10;;;;;;;8.13;65.44;100563.03;688210;28;1384;-82
2022/11/25 01:26:56;;;;;;;8.50;3.90;;;;;;;8.14;65.18;100559.59;688250;28;1095;-82
2022/11/25 01:27:16;;;;;;;7.40;3.63;;;;;;;8.14;64.95;100564.81;685539;28;1046;-82
2022/11/25 01:27:41;;;;;;;9.45;3.72;;;;;;;8.13;65.28;100551.75;685435;28;1404;-82
2022/11/25 01:28:03;;;;;;;13.70;4.45;;;;;;;8.14;65.53;100549.22;690857;28;1237;-82
2022/11/25 01:28:23;;;;;;;13.50;4.20;;;;;;;8.16;65.36;100560.53;690690;28;1176;-82
2022/11/25 01:28:47;;;;;;;10.18;3.70;;;;;;;8.22;65.48;100573.75;688281;28;863;-82
2022/11/25 01:29:13;;;;;;;10.60;4.05;;;;;;;8.27;65.19;100570.41;685203;28;1196;-82
2022/11/25 01:29:34;;;;;;;8.85;3.85;;;;;;;8.22;65.30;100558.16;690808;28;1227;-82
2022/11/25 01:29:55;;;;;;;9.70;3.63;;;;;;;8.25;64.91;100565.19;687982;28;1177;-82
2022/11/25 01:30:15;;;;;;;10.93;3.53;;;;;;;8.26;65.26;100563.44;688032;28;1687;-82
2022/11/25 01:30:36;;;;;;;12.77;3.50;;;;;;;8.24;64.79;100563.41;688215;28;1211;-82
2022/11/25 01:31:08;;;;;;;10.65;3.50;;;;;;;8.32;64.73;100572.38;690877;28;1171;-82
2022/11/25 01:31:31;;;;;;;7.60;3.70;;;;;;;8.27;64.85;100566.09;685595;28;990;-82
2022/11/25 01:31:55;;;;;;;7.63;3.58;;;;;;;8.27;64.94;100560.91;693623;28;1254;-82
2022/11/25 01:32:16;;;;;;;7.75;3.40;;;;;;;8.26;65.02;100566.03;693431;28;1884;-82
2022/11/25 01:32:37;;;;;;;8.25;3.22;;;;;;;8.31;65.10;100569.69;690676;28;1695;-82
2022/11/25 01:33:00;;;;;;;9.68;3.50;;;;;;;8.27;64.93;100560.00;685544;28;1211;-82
2022/11/25 01:33:21;;;;;;;12.03;3.70;;;;;;;8.28;64.75;100572.22;688099;28;1159;-82
2022/11/25 01:33:42;;;;;;;11.23;3.73;;;;;;;8.26;64.84;100558.25;685530;28;1207;-82
2022/11/25 01:34:10;;;;;;;8.80;3.70;;;;;;;8.27;65.02;100555.72;682778;29;1114;-82
2022/11/25 01:34:33;;;;;;;6.43;3.47;;;;;;;8.42;64.67;100568.34;687918;28;1371;-82
2022/11/25 01:34:53;;;;;;;8.30;3.70;;;;;;;8.46;64.85;100566.72;690927;28;1194;-82
2022/11/25 01:35:14;;;;;;;8.55;3.80;;;;;;;8.50;64.42;100579.88;690809;28;1148;-82
2022/11/25 01:35:37;;;;;;;8.45;3.80;;;;;;;8.39;64.67;100568.25;682847;28;1075;-82
2022/11/25 01:36:06;;;;;;;8.30;3.63;;;;;;;8.33;64.40;100565.44;685562;28;1257;-82
2022/11/25 01:36:27;;;;;;;10.18;3.80;;;;;;;8.34;64.90;100567.19;685468;28;1287;-83
2022/11/25 01:36:48;;;;;;;11.93;4.18;;;;;;;8.35;64.62;100563.75;693640;28;1318;-81
2022/11/25 01:37:10;;;;;;;10.23;3.97;;;;;;;8.36;65.02;100569.00;696131;28;1134;-82
2022/11/25 01:37:31;;;;;;;10.27;3.90;;;;;;;8.36;64.70;100575.94;688223;28;1090;-82
2022/11/25 01:37:51;;;;;;;8.77;3.65;;;;;;;8.34;64.86;100578.50;685563;28;1195;-83
2022/11/25 01:38:12;;;;;;;9.68;3.70;;;;;;;8.43;64.80;100580.53;690895;28;1083;-82
2022/11/25 01:38:34;;;;;;;10.98;3.90;;;;;;;8.37;64.61;100569.91;693671;28;1910;-83
2022/11/25 01:38:56;;;;;;;10.68;4.20;;;;;;;8.47;64.95;100574.59;690996;28;1277;-82
2022/11/25 01:39:22;;;;;;;9.95;3.88;;;;;;;8.56;64.58;100583.53;685526;28;1013;-82
2022/11/25 01:39:43;;;;;;;11.60;3.90;;;;;;;8.46;64.40;100569.31;685456;28;1324;-82
2022/11/25 01:40:04;;;;;;;10.38;3.50;;;;;;;8.49;64.23;100567.72;690572;28;1241;-82
2022/11/25 01:40:25;;;;;;;9.25;3.80;;;;;;;8.56;64.08;100578.31;693901;28;1189;-82
2022/11/25 01:40:45;;;;;;;9.50;3.80;;;;;;;8.53;64.33;100573.03;685527;28;1160;-82
2022/11/25 01:41:09;;;;;;;8.60;3.85;;;;;;;8.52;64.47;100561.72;690970;28;1251;-83
2022/11/25 01:41:31;;;;;;;6.20;3.25;;;;;;;8.61;64.08;100571.56;688404;28;1036;-82
2022/11/25 01:41:52;;;;;;;7.47;3.33;;;;;;;8.63;64.40;100577.72;683042;28;1161;-82
2022/11/25 01:42:12;;;;;;;7.88;3.53;;;;;;;8.64;64.07;100574.28;691095;28;1087;-82
2022/11/25 01:42:33;;;;;;;10.70;4.13;;;;;;;8.57;64.06;100562.78;693030;28;1167;-82
2022/11/25 01:42:53;;;;;;;9.33;3.90;;;;;;;8.61;64.12;100566.38;691180;28;1096;-82
2022/11/25 01:43:14;;;;;;;14.18;4.03;;;;;;;8.63;64.24;100570.81;688298;28;1128;-82
2022/11/25 01:43:36;;;;;;;13.75;3.90;;;;;;;8.70;63.94;100576.19;693759;28;1520;-82
2022/11/25 01:44:13;;;;;;;13.98;4.00;;;;;;;8.69;64.08;100577.03;696571;28;1268;-82
2022/11/25 01:44:35;;;;;;;8.05;3.58;;;;;;;8.59;63.75;100568.00;685596;28;1167;-82
2022/11/25 01:45:23;;;;;;;9.38;3.70;;;;;;;8.66;63.77;100583.00;691161;28;817;-82
2022/11/25 01:45:43;;;;;;;8.57;3.50;;;;;;;8.59;63.89;100570.59;689013;28;881;-82
2022/11/25 01:46:18;;;;;;;8.98;3.65;;;;;;;8.55;63.70;100566.16;690835;28;1143;-82
2022/11/25 01:46:57;;;;;;;8.82;3.47;;;;;;;8.65;64.26;100578.66;688229;28;1217;-82
2022/11/25 01:47:23;;;;;;;9.65;3.40;;;;;;;8.59;63.71;100574.09;690914;28;1211;-82
2022/11/25 01:47:43;;;;;;;8.95;3.20;;;;;;;8.53;63.85;100552.22;691137;28;840;-82
2022/11/25 01:48:32;;;;;;;6.70;3.03;;;;;;;8.63;63.96;100570.81;693658;28;1215;-82
2022/11/25 01:49:02;;;;;;;10.50;3.90;;;;;;;8.55;63.61;100547.94;693887;28;735;-82
2022/11/25 01:49:45;;;;;;;8.70;3.80;;;;;;;8.68;64.12;100563.16;690897;28;1212;-81
2022/11/25 01:50:09;;;;;;;10.15;3.92;;;;;;;8.57;63.92;100548.88;690689;28;1141;-82